Time;durP1;ratioP1;P1;durP2;ratioP2;P2;SDS_P1;SDS_P2;PMS_P1;PMS_P2;Temp;Humidity;BMP_temperature;BMP_pressure;BME280_temperature;BME280_humidity;BME280_pressure;Samples;Min_cycle;Max_cycle;Signal;HPM_P1;HPM_P2
2023/04/11 00:01:45;;;;;;;27.92;6.00;;;;;;;9.05;100.00;100849.53;5024695;28;20036;-61
2023/04/11 00:04:11;;;;;;;26.33;6.03;;;;;;;9.04;100.00;100850.53;5031456;28;20456;-61
2023/04/11 00:06:36;;;;;;;27.88;6.00;;;;;;;9.02;100.00;100847.09;5034972;28;20032;-61
2023/04/11 00:09:02;;;;;;;25.35;6.00;;;;;;;9.00;100.00;100843.72;5029780;28;20034;-60
2023/04/11 00:11:27;;;;;;;30.45;6.80;;;;;;;8.97;100.00;100843.94;5043153;28;20506;-60
2023/04/11 00:13:56;;;;;;;23.52;6.10;;;;;;;8.95;100.00;100843.19;5042657;28;20035;-61
2023/04/11 00:16:23;;;;;;;28.07;6.87;;;;;;;8.91;100.00;100849.69;5048132;28;20051;-60
2023/04/11 00:18:49;;;;;;;25.65;6.47;;;;;;;8.89;100.00;100847.13;5036912;28;20028;-60
2023/04/11 00:21:14;;;;;;;31.33;7.18;;;;;;;8.85;100.00;100850.09;5042705;28;20449;-61
2023/04/11 00:23:39;;;;;;;22.65;6.32;;;;;;;8.82;100.00;100855.59;5038366;28;20034;-60
2023/04/11 00:26:05;;;;;;;29.63;7.72;;;;;;;8.77;100.00;100860.38;5029652;28;20430;-61
2023/04/11 00:28:30;;;;;;;30.83;6.75;;;;;;;8.74;100.00;100852.63;5038093;28;20109;-61
2023/04/11 00:30:55;;;;;;;27.98;6.82;;;;;;;8.69;100.00;100859.09;5041832;28;20078;-60
2023/04/11 00:33:21;;;;;;;32.25;6.60;;;;;;;8.66;100.00;100861.97;5038709;28;20064;-60
2023/04/11 00:35:46;;;;;;;28.23;6.88;;;;;;;8.64;100.00;100855.94;5030772;28;20032;-61
2023/04/11 00:38:11;;;;;;;29.48;6.43;;;;;;;8.59;100.00;100859.81;5036239;28;20030;-60
2023/04/11 00:40:37;;;;;;;27.92;6.85;;;;;;;8.57;100.00;100862.56;5038993;28;20063;-60
2023/04/11 00:43:02;;;;;;;31.17;7.22;;;;;;;8.55;100.00;100866.28;5034469;28;20025;-60
2023/04/11 00:45:28;;;;;;;30.98;6.10;;;;;;;8.50;100.00;100863.94;5043353;28;20017;-61
2023/04/11 00:47:53;;;;;;;27.55;7.03;;;;;;;8.48;100.00;100865.84;5038594;28;20121;-60
2023/04/11 00:50:20;;;;;;;35.25;7.05;;;;;;;8.47;100.00;100864.16;5039281;28;20029;-60
2023/04/11 00:52:48;;;;;;;33.10;6.97;;;;;;;8.47;100.00;100856.22;5040901;28;20116;-61
2023/04/11 00:55:14;;;;;;;27.35;7.05;;;;;;;8.48;100.00;100860.56;5041216;28;20138;-61
2023/04/11 00:57:41;;;;;;;30.10;6.80;;;;;;;8.47;100.00;100858.84;5042868;28;20025;-60
2023/04/11 01:00:09;;;;;;;33.78;6.85;;;;;;;8.48;100.00;100856.13;5037375;28;20036;-60
2023/04/11 01:02:34;;;;;;;31.15;6.47;;;;;;;8.47;100.00;100861.50;5024612;28;20029;-60
2023/04/11 01:05:00;;;;;;;32.50;6.80;;;;;;;8.46;100.00;100857.16;5021146;28;20029;-60
2023/04/11 01:07:26;;;;;;;33.35;7.22;;;;;;;8.45;100.00;100864.25;5029517;28;20026;-60
2023/04/11 01:09:52;;;;;;;28.88;6.40;;;;;;;8.43;100.00;100862.69;5045619;28;20125;-60
2023/04/11 01:12:20;;;;;;;31.15;6.72;;;;;;;8.42;100.00;100860.94;5040052;28;20025;-60
2023/04/11 01:14:46;;;;;;;31.70;6.88;;;;;;;8.41;100.00;100860.09;5039497;28;20110;-60
2023/04/11 01:17:13;;;;;;;35.70;7.97;;;;;;;8.39;100.00;100851.38;5029281;28;20168;-60
2023/04/11 01:19:39;;;;;;;35.90;6.88;;;;;;;8.36;100.00;100856.91;5041271;28;20025;-60
2023/04/11 01:22:05;;;;;;;33.13;7.75;;;;;;;8.33;100.00;100849.19;5036313;28;20383;-60
2023/04/11 01:24:30;;;;;;;30.77;6.63;;;;;;;8.32;100.00;100856.25;5041400;28;20042;-61
2023/04/11 01:26:56;;;;;;;28.00;6.70;;;;;;;8.31;100.00;100851.06;5029762;28;20032;-60
2023/04/11 01:29:21;;;;;;;31.48;6.72;;;;;;;8.28;100.00;100856.59;5041423;28;20029;-60
2023/04/11 01:31:48;;;;;;;34.75;6.72;;;;;;;8.27;100.00;100853.06;5028061;28;20034;-60
2023/04/11 01:34:15;;;;;;;29.50;6.60;;;;;;;8.24;100.00;100852.44;5038448;28;20103;-60
2023/04/11 01:36:41;;;;;;;35.10;7.30;;;;;;;8.22;100.00;100864.91;5031853;28;20380;-60
2023/04/11 01:39:06;;;;;;;30.50;7.50;;;;;;;8.19;100.00;100860.66;5022642;28;20036;-60
2023/04/11 01:41:34;;;;;;;30.83;6.55;;;;;;;8.18;100.00;100874.00;5033803;28;20033;-61
2023/04/11 01:44:03;;;;;;;31.98;6.82;;;;;;;8.14;100.00;100868.94;5023679;28;20560;-60
2023/04/11 01:46:29;;;;;;;27.35;6.25;;;;;;;8.11;100.00;100876.19;5032615;28;20471;-60
2023/04/11 01:48:55;;;;;;;27.77;6.88;;;;;;;8.08;100.00;100879.91;5047223;28;20032;-60
2023/04/11 01:51:20;;;;;;;29.20;7.28;;;;;;;8.03;100.00;100881.16;5048143;28;20029;-61
2023/04/11 01:53:46;;;;;;;27.90;7.13;;;;;;;8.02;100.00;100893.53;5046829;28;20021;-62
2023/04/11 01:56:12;;;;;;;30.27;7.32;;;;;;;8.02;100.00;100887.41;5046849;28;20302;-61
2023/04/11 01:58:37;;;;;;;36.72;7.03;;;;;;;7.97;100.00;100892.97;5047311;28;20428;-60
2023/04/11 02:01:03;;;;;;;29.85;7.03;;;;;;;7.95;100.00;100893.06;5024879;28;20018;-60
2023/04/11 02:03:28;;;;;;;28.75;7.22;;;;;;;7.95;100.00;100894.88;5035608;28;20057;-60
2023/04/11 02:05:54;;;;;;;32.85;7.43;;;;;;;7.92;100.00;100895.91;5027271;28;20030;-61
2023/04/11 02:08:19;;;;;;;29.67;7.50;;;;;;;7.91;100.00;100901.28;5036610;28;20076;-60
2023/04/11 02:10:45;;;;;;;33.28;7.38;;;;;;;7.91;100.00;100898.66;5035298;28;20486;-60
2023/04/11 02:13:10;;;;;;;32.53;7.82;;;;;;;7.90;100.00;100908.41;5037806;28;20390;-61
2023/04/11 02:15:35;;;;;;;35.03;8.00;;;;;;;7.91;100.00;100909.22;5019073;28;20040;-60
2023/04/11 02:18:00;;;;;;;30.13;7.85;;;;;;;7.91;100.00;100911.88;5010605;28;20468;-60
2023/04/11 02:20:26;;;;;;;30.08;6.85;;;;;;;7.90;100.00;100905.75;5016403;28;20057;-60
2023/04/11 02:22:52;;;;;;;38.95;8.25;;;;;;;7.89;100.00;100903.19;5026828;28;20553;-61
2023/04/11 02:25:17;;;;;;;30.92;7.75;;;;;;;7.91;100.00;100909.22;5025932;28;20093;-61
2023/04/11 02:27:42;;;;;;;29.00;7.20;;;;;;;7.89;100.00;100912.00;5029423;28;20033;-61
2023/04/11 02:30:08;;;;;;;34.10;7.40;;;;;;;7.91;100.00;100917.16;5031012;28;20025;-61
2023/04/11 02:32:34;;;;;;;32.85;7.53;;;;;;;7.91;100.00;100912.75;5039670;28;20099;-61
2023/04/11 02:35:00;;;;;;;28.88;6.82;;;;;;;7.91;100.00;100914.53;5019295;28;20025;-61
2023/04/11 02:37:26;;;;;;;29.73;6.82;;;;;;;7.90;100.00;100918.97;5021274;28;20037;-61
2023/04/11 02:39:51;;;;;;;33.58;7.25;;;;;;;7.90;100.00;100911.03;5036704;28;20026;-61
2023/04/11 02:42:16;;;;;;;35.28;7.10;;;;;;;7.92;100.00;100922.34;5036295;28;20033;-62
2023/04/11 02:44:42;;;;;;;30.63;7.65;;;;;;;7.92;100.00;100914.44;5037442;28;20632;-61
2023/04/11 02:47:07;;;;;;;26.90;7.03;;;;;;;7.92;100.00;100918.88;5042265;28;20060;-61
2023/04/11 02:49:32;;;;;;;27.55;6.50;;;;;;;7.92;100.00;100924.16;5046687;28;20052;-62
2023/04/11 02:51:58;;;;;;;31.67;7.30;;;;;;;7.91;100.00;100925.09;5022180;28;20104;-61
2023/04/11 02:54:23;;;;;;;32.25;7.13;;;;;;;7.91;100.00;100922.47;5029104;28;20124;-62
2023/04/11 02:56:48;;;;;;;27.60;6.15;;;;;;;7.89;99.89;100914.66;5043570;28;20531;-61
2023/04/11 02:59:14;;;;;;;27.08;6.30;;;;;;;7.90;100.00;100921.63;5042545;28;20037;-62
2023/04/11 03:01:39;;;;;;;27.50;6.22;;;;;;;7.89;99.62;100917.28;5044106;28;20032;-61
2023/04/11 03:04:06;;;;;;;28.33;5.53;;;;;;;7.89;99.89;100922.59;5042306;28;20036;-59
2023/04/11 03:06:32;;;;;;;25.42;5.15;;;;;;;7.88;99.14;100923.53;5045032;28;20029;-61
2023/04/11 03:08:57;;;;;;;27.75;5.80;;;;;;;7.88;98.99;100922.69;5038225;28;20032;-60
2023/04/11 03:11:22;;;;;;;26.52;5.50;;;;;;;7.88;97.42;100927.97;5037558;28;20045;-61
2023/04/11 03:13:48;;;;;;;19.88;4.70;;;;;;;7.87;97.63;100923.63;5043598;28;20064;-60
2023/04/11 03:16:13;;;;;;;19.05;4.50;;;;;;;7.85;96.87;100934.28;5037229;28;20367;-61
2023/04/11 03:18:38;;;;;;;18.50;4.60;;;;;;;7.83;97.14;100938.84;5029901;28;20079;-61
2023/04/11 03:21:06;;;;;;;18.40;4.50;;;;;;;7.80;97.10;100933.72;5038092;28;20031;-61
2023/04/11 03:23:32;;;;;;;22.83;4.45;;;;;;;7.78;96.52;100944.41;5040948;28;20032;-61
2023/04/11 03:25:59;;;;;;;25.23;4.70;;;;;;;7.77;95.54;100945.34;5021630;28;20051;-61
2023/04/11 03:28:24;;;;;;;20.77;4.30;;;;;;;7.76;95.88;100954.22;5028723;28;20038;-61
2023/04/11 03:30:49;;;;;;;19.98;4.45;;;;;;;7.74;96.02;100958.78;5036365;28;20083;-62
2023/04/11 03:33:15;;;;;;;18.38;3.75;;;;;;;7.74;96.35;100963.19;5040714;28;20029;-63
2023/04/11 03:35:40;;;;;;;15.70;3.92;;;;;;;7.74;95.94;100961.44;5035525;28;20076;-62
2023/04/11 03:38:05;;;;;;;22.90;3.50;;;;;;;7.72;95.92;100958.00;5043421;28;20040;-62
2023/04/11 03:40:31;;;;;;;13.55;3.80;;;;;;;7.73;95.67;100969.44;5042293;28;20021;-61
2023/04/11 03:42:56;;;;;;;19.42;4.10;;;;;;;7.70;95.77;100967.00;5044989;28;20047;-59
2023/04/11 03:45:22;;;;;;;19.95;3.80;;;;;;;7.68;96.17;100966.25;5042164;28;20026;-59
2023/04/11 03:47:47;;;;;;;16.08;3.88;;;;;;;7.67;95.81;100972.47;5044621;28;20029;-59
2023/04/11 03:50:12;;;;;;;24.42;4.57;;;;;;;7.65;95.70;100971.72;5044583;28;20436;-59
2023/04/11 03:52:37;;;;;;;17.08;3.88;;;;;;;7.65;95.45;100964.63;5049360;28;20544;-58
2023/04/11 03:55:04;;;;;;;21.90;4.15;;;;;;;7.64;95.74;100970.84;5044845;28;20071;-59
2023/04/11 03:57:31;;;;;;;28.45;4.88;;;;;;;7.62;95.50;100971.91;5046357;28;20482;-59
2023/04/11 03:59:57;;;;;;;18.90;3.53;;;;;;;7.60;94.93;100974.66;5042575;28;20045;-59
2023/04/11 04:02:22;;;;;;;21.85;4.00;;;;;;;7.57;95.17;100975.66;5041279;28;20461;-59
2023/04/11 04:04:53;;;;;;;17.05;4.13;;;;;;;7.55;95.29;100972.28;5041248;28;20037;-59
2023/04/11 04:07:21;;;;;;;17.00;3.95;;;;;;;7.54;95.18;100977.66;5047778;28;20139;-60
2023/04/11 04:09:46;;;;;;;21.80;4.97;;;;;;;7.51;95.38;100978.72;5030684;28;20058;-59
2023/04/11 04:12:11;;;;;;;19.27;4.47;;;;;;;7.49;95.85;100974.44;5027125;28;20431;-58
2023/04/11 04:14:37;;;;;;;20.52;5.13;;;;;;;7.49;95.77;100983.22;5033549;28;20234;-61
2023/04/11 04:17:02;;;;;;;15.35;4.65;;;;;;;7.47;96.05;100979.81;5035406;28;20530;-62
2023/04/11 04:19:27;;;;;;;21.63;4.57;;;;;;;7.46;96.04;100974.63;5042092;28;20028;-61
2023/04/11 04:21:56;;;;;;;21.88;5.53;;;;;;;7.43;95.76;100983.63;5047136;28;20033;-61
2023/04/11 04:24:24;;;;;;;21.63;4.60;;;;;;;7.41;96.36;100996.91;5031542;28;20026;-59
2023/04/11 04:26:50;;;;;;;19.17;4.57;;;;;;;7.39;96.10;100993.53;5036587;28;20037;-59
2023/04/11 04:29:16;;;;;;;24.08;5.50;;;;;;;7.36;96.25;100988.44;5024255;28;20027;-61
2023/04/11 04:31:42;;;;;;;26.05;5.47;;;;;;;7.34;96.50;100994.72;5034438;28;20084;-62
2023/04/11 04:34:08;;;;;;;25.92;5.53;;;;;;;7.31;96.55;101003.72;5034778;28;20028;-61
2023/04/11 04:36:48;;;;;;;27.10;5.50;;;;;;;7.28;96.79;101009.19;5028900;28;20034;-62
2023/04/11 04:39:16;;;;;;;24.35;5.25;;;;;;;7.26;96.83;101019.00;5040259;28;20106;-62
2023/04/11 04:41:48;;;;;;;22.17;4.87;;;;;;;7.24;97.14;101023.50;5035410;28;20458;-61
2023/04/11 04:44:16;;;;;;;23.90;6.35;;;;;;;7.19;97.57;101020.28;5052628;28;20037;-61
2023/04/11 04:46:42;;;;;;;23.15;5.45;;;;;;;7.16;97.18;101025.75;5043792;28;20060;-62
2023/04/11 04:49:08;;;;;;;17.40;5.05;;;;;;;7.13;97.76;101023.31;5045432;28;20028;-61
2023/04/11 04:51:34;;;;;;;25.17;5.15;;;;;;;7.11;97.68;101035.72;5039344;28;20040;-61
2023/04/11 04:53:59;;;;;;;18.00;4.80;;;;;;;7.08;98.05;101030.63;5045471;28;20537;-62
2023/04/11 04:56:29;;;;;;;18.70;5.03;;;;;;;7.06;97.73;101038.66;5038583;28;20112;-61
2023/04/11 04:58:54;;;;;;;;;;;;;;;7.11;96.89;101041.00;5040320;28;20534;-62
2023/04/11 05:01:20;;;;;;;19.73;4.45;;;;;;;7.03;97.76;101054.69;5038151;28;19944;-62
2023/04/11 05:03:49;;;;;;;24.55;4.95;;;;;;;7.00;97.86;101057.50;5038253;28;20486;-62
2023/04/11 05:06:15;;;;;;;19.85;4.38;;;;;;;6.97;98.19;101057.69;5032519;28;20037;-61
2023/04/11 05:08:40;;;;;;;20.40;4.30;;;;;;;6.95;97.93;101060.41;5037008;28;20156;-62
2023/04/11 05:11:05;;;;;;;19.42;4.43;;;;;;;6.93;98.05;101062.28;5037408;28;20045;-61
2023/04/11 05:13:32;;;;;;;21.92;4.78;;;;;;;6.91;98.17;101055.38;5044554;28;20526;-62
2023/04/11 05:15:58;;;;;;;16.77;3.97;;;;;;;6.89;98.51;101060.75;5040972;28;20053;-60
2023/04/11 05:18:23;;;;;;;18.77;4.18;;;;;;;6.85;98.61;101060.06;5043182;28;20071;-62
2023/04/11 05:20:48;;;;;;;21.05;3.53;;;;;;;6.85;98.97;101061.88;5040946;28;20378;-61
2023/04/11 05:23:15;;;;;;;16.88;3.92;;;;;;;6.84;98.67;101070.72;5043534;28;20033;-61
2023/04/11 05:25:40;;;;;;;21.35;4.55;;;;;;;6.82;98.69;101067.34;5016719;28;20026;-62
2023/04/11 05:28:05;;;;;;;18.60;3.97;;;;;;;6.83;99.00;101063.75;5046846;28;20356;-61
2023/04/11 05:30:30;;;;;;;19.98;4.07;;;;;;;6.82;98.72;101075.25;5044320;28;20056;-61
2023/04/11 05:32:56;;;;;;;15.60;3.70;;;;;;;6.82;98.55;101081.38;5028185;28;20421;-61
2023/04/11 05:35:21;;;;;;;16.88;3.60;;;;;;;6.80;98.60;101075.34;5038134;28;20033;-61
2023/04/11 05:37:46;;;;;;;19.40;4.20;;;;;;;6.80;98.77;101082.41;5023975;28;20105;-62
2023/04/11 05:40:12;;;;;;;22.48;3.83;;;;;;;6.81;99.05;101081.47;5032214;28;20029;-61
2023/04/11 05:42:37;;;;;;;16.17;3.20;;;;;;;6.79;98.62;101093.91;5032147;28;20039;-62
2023/04/11 05:45:02;;;;;;;20.55;3.60;;;;;;;6.79;99.02;101097.38;5032415;28;20029;-62
2023/04/11 05:47:28;;;;;;;20.27;4.07;;;;;;;6.80;99.50;101100.91;5033412;28;20094;-62
2023/04/11 05:49:53;;;;;;;14.95;3.78;;;;;;;6.80;99.09;101101.75;5035244;28;20028;-62
2023/04/11 05:52:18;;;;;;;12.82;3.35;;;;;;;6.82;98.84;101104.28;5018066;28;20368;-61
2023/04/11 05:54:44;;;;;;;16.27;4.30;;;;;;;6.82;98.92;101104.28;5018643;28;20045;-61
2023/04/11 05:57:10;;;;;;;17.58;3.85;;;;;;;6.83;98.73;101109.50;5041823;28;20113;-61
2023/04/11 05:59:35;;;;;;;20.10;4.65;;;;;;;6.87;98.63;101117.25;5033451;28;20044;-61
2023/04/11 06:02:01;;;;;;;15.80;4.05;;;;;;;6.87;98.63;101112.81;5022959;28;20014;-61
2023/04/11 06:04:26;;;;;;;19.77;3.97;;;;;;;6.89;98.31;101110.06;5024382;28;20489;-61
2023/04/11 06:06:52;;;;;;;17.02;3.70;;;;;;;6.91;98.53;101116.13;5029628;28;20037;-62
2023/04/11 06:09:18;;;;;;;18.38;4.32;;;;;;;6.92;98.69;101125.75;5023696;28;20046;-61
2023/04/11 06:11:43;;;;;;;16.95;3.65;;;;;;;6.94;98.24;101123.88;5024049;28;20045;-60
2023/04/11 06:14:08;;;;;;;18.08;3.83;;;;;;;6.95;98.44;101120.28;5028524;28;20496;-60
2023/04/11 06:16:35;;;;;;;21.95;4.60;;;;;;;6.97;98.55;101127.19;5023696;28;20025;-61
2023/04/11 06:19:02;;;;;;;15.45;3.88;;;;;;;7.01;98.44;101125.22;5024705;28;20129;-56
2023/04/11 06:21:27;;;;;;;18.23;4.60;;;;;;;7.05;98.97;101129.41;5034324;28;20033;-60
2023/04/11 06:23:52;;;;;;;18.73;4.20;;;;;;;7.08;98.49;101129.22;5026159;28;20564;-60
2023/04/11 06:26:17;;;;;;;21.50;4.47;;;;;;;7.13;98.98;101126.31;5027866;28;20025;-60
2023/04/11 06:28:43;;;;;;;20.70;4.43;;;;;;;7.16;98.70;101129.63;5028795;28;20057;-59
2023/04/11 06:31:08;;;;;;;18.80;4.03;;;;;;;7.21;98.02;101138.13;5028434;28;20433;-60
2023/04/11 06:33:33;;;;;;;15.57;4.50;;;;;;;7.25;98.11;101132.69;5031196;28;20092;-61
2023/04/11 06:35:59;;;;;;;20.58;3.95;;;;;;;7.29;97.75;101134.19;5029984;28;20037;-61
2023/04/11 06:38:24;;;;;;;20.25;4.50;;;;;;;7.33;97.47;101147.16;5025893;28;20064;-63
2023/04/11 06:40:51;;;;;;;20.05;3.92;;;;;;;7.37;97.63;101146.00;5028889;28;20161;-61
2023/04/11 06:43:16;;;;;;;23.13;4.63;;;;;;;7.41;97.03;101147.56;5030872;28;20100;-60
2023/04/11 06:45:41;;;;;;;18.48;4.38;;;;;;;7.45;97.26;101148.22;5028835;28;20484;-60
2023/04/11 06:48:07;;;;;;;15.85;4.20;;;;;;;7.48;97.16;101150.69;5029093;28;20033;-60
2023/04/11 06:50:32;;;;;;;21.27;4.30;;;;;;;7.56;97.39;101169.59;5032708;28;20085;-61
2023/04/11 06:52:57;;;;;;;16.98;4.53;;;;;;;7.62;96.75;101157.78;5033039;28;20108;-61
2023/04/11 06:55:23;;;;;;;15.75;4.68;;;;;;;7.68;96.07;101160.09;5029916;28;20077;-61
2023/04/11 06:57:48;;;;;;;20.75;4.70;;;;;;;7.75;96.33;101168.50;5025887;28;20309;-61
2023/04/11 07:00:15;;;;;;;15.85;4.78;;;;;;;7.82;96.02;101172.47;5045018;28;20030;-63
2023/04/11 07:02:40;;;;;;;18.98;4.65;;;;;;;7.90;95.29;101169.38;5027279;28;20121;-61
2023/04/11 07:05:08;;;;;;;19.65;4.38;;;;;;;7.96;94.45;101172.50;5016586;28;20129;-61
2023/04/11 07:07:33;;;;;;;20.02;4.95;;;;;;;8.07;94.61;101177.13;5020268;28;20029;-61
2023/04/11 07:09:59;;;;;;;21.00;5.63;;;;;;;8.17;93.81;101177.41;5018469;28;20041;-61
2023/04/11 07:12:24;;;;;;;17.45;5.20;;;;;;;8.25;93.27;101172.50;5030243;28;20084;-61
2023/04/11 07:14:49;;;;;;;17.88;5.20;;;;;;;8.32;91.24;101172.97;5034585;28;20053;-61
2023/04/11 07:17:15;;;;;;;23.42;5.72;;;;;;;8.40;91.79;101177.81;5033179;28;20041;-62
2023/04/11 07:19:40;;;;;;;19.88;5.13;;;;;;;8.52;91.39;101177.91;5026569;28;20140;-61
2023/04/11 07:22:05;;;;;;;20.13;5.45;;;;;;;8.67;90.79;101181.38;5018278;28;20505;-61
2023/04/11 07:24:31;;;;;;;24.20;6.22;;;;;;;8.86;89.75;101185.53;5019716;28;20045;-61
2023/04/11 07:27:00;;;;;;;18.52;4.70;;;;;;;8.99;87.65;101194.41;5021318;28;20033;-62
2023/04/11 07:29:26;;;;;;;22.77;5.50;;;;;;;9.16;88.11;101193.31;5026589;28;20041;-61
2023/04/11 07:31:52;;;;;;;19.70;4.90;;;;;;;9.29;87.85;101192.50;5027684;28;20592;-58
2023/04/11 07:34:17;;;;;;;18.38;4.45;;;;;;;9.33;84.33;101202.81;5061974;28;20038;-58
2023/04/11 07:36:42;;;;;;;20.70;4.93;;;;;;;9.37;84.15;101198.97;5016784;28;20033;-59
2023/04/11 07:39:11;;;;;;;19.38;4.72;;;;;;;9.41;82.90;101205.81;5022906;28;20048;-59
2023/04/11 07:41:36;;;;;;;21.67;4.90;;;;;;;9.56;84.03;101218.97;5018023;28;20029;-59
2023/04/11 07:44:06;;;;;;;15.07;3.75;;;;;;;9.68;80.40;101204.91;5027937;28;20470;-59
2023/04/11 07:46:31;;;;;;;16.23;4.03;;;;;;;9.87;82.20;101211.63;5033721;28;20479;-58
2023/04/11 07:48:56;;;;;;;17.17;4.53;;;;;;;9.98;80.88;101217.91;5031826;28;20037;-58
2023/04/11 07:51:22;;;;;;;13.90;4.03;;;;;;;9.99;79.47;101210.78;5026330;28;20029;-59
2023/04/11 07:53:47;;;;;;;13.75;3.80;;;;;;;10.07;78.23;101207.63;5042371;28;20027;-59
2023/04/11 07:56:13;;;;;;;16.35;3.70;;;;;;;10.23;78.70;101208.25;5036081;28;20402;-58
2023/04/11 07:58:39;;;;;;;19.02;4.25;;;;;;;10.34;76.88;101211.06;5041932;28;20078;-65
2023/04/11 08:01:07;;;;;;;17.30;4.20;;;;;;;10.49;77.49;101213.56;5037397;28;20029;-59
2023/04/11 08:03:33;;;;;;;16.25;3.75;;;;;;;10.59;76.06;101225.28;5031791;28;20505;-59
2023/04/11 08:05:58;;;;;;;17.05;3.55;;;;;;;10.68;74.31;101218.44;5024471;28;20057;-59
2023/04/11 08:08:24;;;;;;;14.52;3.42;;;;;;;10.73;73.61;101230.44;5017664;28;20059;-59
2023/04/11 08:10:50;;;;;;;17.55;3.38;;;;;;;10.74;73.79;101216.22;5017262;28;20049;-60
2023/04/11 08:13:15;;;;;;;14.15;3.20;;;;;;;10.79;72.80;101237.13;5015850;28;20018;-59
2023/04/11 08:15:40;;;;;;;13.65;3.08;;;;;;;10.81;72.27;101229.03;5049713;28;20037;-58
2023/04/11 08:18:05;;;;;;;16.48;3.40;;;;;;;10.99;72.35;101227.75;5005946;28;20036;-60
2023/04/11 08:20:31;;;;;;;13.27;3.30;;;;;;;11.04;72.56;101241.53;5020843;28;20025;-59
2023/04/11 08:22:56;;;;;;;17.70;3.20;;;;;;;11.10;70.19;101241.06;5039071;28;20119;-60
2023/04/11 08:25:21;;;;;;;16.25;3.33;;;;;;;11.13;70.04;101236.53;5030894;28;20394;-59
2023/04/11 08:27:48;;;;;;;12.40;2.83;;;;;;;11.28;69.96;101252.19;5032787;28;20057;-59
2023/04/11 08:30:14;;;;;;;13.23;2.92;;;;;;;11.42;68.93;101247.66;5029942;28;20030;-59
2023/04/11 08:32:40;;;;;;;13.68;2.63;;;;;;;11.55;68.18;101248.44;5032848;28;20030;-59
2023/04/11 08:35:05;;;;;;;14.27;2.78;;;;;;;11.64;66.77;101254.91;5031731;28;20052;-59
2023/04/11 08:37:31;;;;;;;13.70;2.40;;;;;;;11.59;65.84;101251.72;5024778;28;20030;-57
2023/04/11 08:39:56;;;;;;;13.77;3.30;;;;;;;11.71;64.83;101255.28;5033491;28;20502;-58
2023/04/11 08:42:27;;;;;;;10.30;2.42;;;;;;;11.71;66.37;101265.94;5030910;28;20375;-56
2023/04/11 08:44:54;;;;;;;15.20;2.80;;;;;;;11.79;67.35;101269.72;5026882;28;20558;-59
2023/04/11 08:47:21;;;;;;;9.20;3.15;;;;;;;11.92;66.11;101275.00;5022713;28;20030;-59
2023/04/11 08:49:46;;;;;;;10.48;2.63;;;;;;;11.90;64.64;101276.91;5028106;28;20025;-59
2023/04/11 08:52:12;;;;;;;14.18;3.20;;;;;;;11.85;64.36;101266.59;5032348;28;20022;-58
2023/04/11 08:54:37;;;;;;;13.82;2.53;;;;;;;11.85;64.22;101268.41;5029066;28;20390;-59
2023/04/11 08:57:03;;;;;;;14.25;2.88;;;;;;;11.95;64.09;101265.94;5012686;28;20026;-58
2023/04/11 08:59:28;;;;;;;14.38;2.55;;;;;;;11.89;61.70;101263.69;5017775;28;20025;-57
2023/04/11 09:02:05;;;;;;;14.18;3.38;;;;;;;11.79;63.85;101266.19;5021352;28;20040;-59
2023/04/11 09:04:41;;;;;;;11.27;3.33;;;;;;;11.77;64.33;101268.97;5016134;28;20108;-59
2023/04/11 09:07:06;;;;;;;11.70;2.90;;;;;;;11.72;64.15;101262.31;5041997;28;20500;-58
2023/04/11 09:09:33;;;;;;;10.50;3.08;;;;;;;11.81;63.25;101257.16;5034294;28;20120;-58
2023/04/11 09:12:00;;;;;;;11.38;3.38;;;;;;;12.02;64.79;101261.84;5031323;28;20398;-58
2023/04/11 09:14:25;;;;;;;12.18;2.85;;;;;;;12.04;63.66;101265.25;5025321;28;20029;-59
2023/04/11 09:17:00;;;;;;;13.30;3.30;;;;;;;12.23;65.14;101272.69;5028284;28;20141;-59
2023/04/11 09:19:28;;;;;;;13.10;2.63;;;;;;;12.26;60.35;101268.91;5030974;28;20031;-58
2023/04/11 09:21:55;;;;;;;10.05;2.72;;;;;;;12.42;62.63;101265.94;5028019;28;20025;-58
2023/04/11 09:24:21;;;;;;;8.60;2.38;;;;;;;12.72;61.40;101273.31;5020159;28;20034;-58
2023/04/11 09:26:47;;;;;;;7.72;2.20;;;;;;;12.90;59.15;101268.34;5030886;28;20033;-55
2023/04/11 09:29:33;;;;;;;12.38;2.95;;;;;;;13.20;59.31;101280.22;5037749;28;20363;-55
2023/04/11 09:31:58;;;;;;;6.93;2.40;;;;;;;13.28;58.60;101270.59;5024376;28;20108;-55
2023/04/11 09:34:28;;;;;;;10.18;2.30;;;;;;;13.29;57.29;101276.81;5029869;28;20231;-51
2023/04/11 09:36:55;;;;;;;10.25;2.75;;;;;;;13.11;55.66;101287.97;5029575;28;20064;-54
2023/04/11 09:39:20;;;;;;;9.05;2.55;;;;;;;13.05;54.61;101288.47;5027685;28;20402;-52
2023/04/11 09:41:46;;;;;;;9.80;2.25;;;;;;;13.22;56.40;101278.25;5031059;28;20025;-54
2023/04/11 09:44:11;;;;;;;5.03;1.98;;;;;;;13.47;56.41;101275.34;5023888;28;20081;-53
2023/04/11 09:46:55;;;;;;;8.20;2.30;;;;;;;13.67;55.57;101280.81;5037590;28;20034;-56
2023/04/11 09:49:21;;;;;;;6.32;1.92;;;;;;;13.87;55.04;101264.00;5025575;28;20022;-54
2023/04/11 09:51:47;;;;;;;13.77;2.53;;;;;;;14.19;55.57;101276.47;5036148;28;20083;-54
2023/04/11 09:54:14;;;;;;;11.15;2.70;;;;;;;14.21;51.30;101279.84;5019085;28;20033;-56
2023/04/11 09:56:41;;;;;;;9.88;2.47;;;;;;;14.30;52.83;101288.91;5032940;28;20082;-55
2023/04/11 09:59:06;;;;;;;10.38;2.20;;;;;;;14.20;49.01;101275.47;5040106;28;20486;-54
2023/04/11 10:01:32;;;;;;;8.73;1.98;;;;;;;14.29;50.95;101281.00;5072501;28;20150;-56
2023/04/11 10:03:59;;;;;;;9.35;2.00;;;;;;;14.34;50.40;101281.47;5033129;28;20037;-54
2023/04/11 10:06:37;;;;;;;11.25;2.40;;;;;;;14.63;52.57;101283.50;5041953;28;20025;-56
2023/04/11 10:09:10;;;;;;;9.18;2.40;;;;;;;14.67;48.54;101279.56;5034089;28;20121;-55
2023/04/11 10:11:39;;;;;;;9.07;2.40;;;;;;;14.83;49.31;101277.25;5023696;28;20296;-55
2023/04/11 10:14:04;;;;;;;9.82;1.90;;;;;;;15.09;47.01;101266.09;5025644;28;20034;-56
2023/04/11 10:16:32;;;;;;;7.50;2.03;;;;;;;15.20;45.66;101271.31;5031863;28;20075;-54
2023/04/11 10:18:59;;;;;;;7.57;2.50;;;;;;;15.24;45.48;101274.53;5025293;28;20482;-56
2023/04/11 10:21:33;;;;;;;6.38;2.03;;;;;;;15.52;46.58;101263.06;5028037;28;20037;-56
2023/04/11 10:24:15;;;;;;;8.63;2.00;;;;;;;15.70;46.54;101265.03;5030382;28;20050;-57
2023/04/11 10:26:56;;;;;;;8.23;1.83;;;;;;;15.72;46.09;101268.41;5031699;28;20109;-54
2023/04/11 10:29:27;;;;;;;8.50;1.85;;;;;;;15.61;43.47;101265.88;5013462;28;20046;-55
2023/04/11 10:32:14;;;;;;;6.75;2.10;;;;;;;15.68;45.08;101258.97;5022258;28;20030;-53
2023/04/11 10:34:48;;;;;;;8.65;1.80;;;;;;;15.90;44.11;101269.44;5026492;28;20037;-56
2023/04/11 10:37:14;;;;;;;5.40;1.70;;;;;;;16.01;42.82;101267.59;5023296;28;20037;-56
2023/04/11 10:39:56;;;;;;;5.00;1.85;;;;;;;16.29;44.35;101276.56;5026510;28;20506;-54
2023/04/11 10:42:28;;;;;;;5.53;2.00;;;;;;;16.38;42.58;101264.97;5025611;28;20080;-54
2023/04/11 10:45:12;;;;;;;8.23;2.00;;;;;;;16.65;44.09;101271.38;5023364;28;20492;-57
2023/04/11 10:47:38;;;;;;;7.45;1.70;;;;;;;16.73;41.79;101259.91;5014053;28;20037;-56
2023/04/11 10:50:23;;;;;;;6.40;2.17;;;;;;;16.86;37.78;101271.19;5016218;28;20408;-56
2023/04/11 10:52:48;;;;;;;6.18;1.73;;;;;;;16.91;38.18;101265.38;5018184;28;20092;-53
2023/04/11 10:55:15;;;;;;;6.43;2.00;;;;;;;17.03;39.77;101274.91;5021797;28;20026;-56
2023/04/11 10:58:05;;;;;;;8.25;1.90;;;;;;;17.26;42.21;101271.84;5031427;28;20449;-57
2023/04/11 11:00:59;;;;;;;5.35;1.90;;;;;;;17.50;42.11;101260.50;5023075;28;20079;-55
2023/04/11 11:03:28;;;;;;;7.93;2.00;;;;;;;17.54;39.62;101262.72;5025648;28;20091;-56
2023/04/11 11:06:05;;;;;;;10.45;1.80;;;;;;;17.49;38.68;101266.88;5026917;28;20030;-57
2023/04/11 11:08:36;;;;;;;8.00;1.70;;;;;;;17.38;37.89;101262.56;5028613;28;20390;-55
2023/04/11 11:11:09;;;;;;;8.35;2.25;;;;;;;17.53;37.76;101270.94;5023334;28;20045;-54
2023/04/11 11:13:41;;;;;;;9.65;2.20;;;;;;;17.56;37.21;101260.72;5047039;28;20041;-55
2023/04/11 11:16:08;;;;;;;5.82;1.80;;;;;;;17.51;36.74;101281.81;5038431;28;20033;-56
2023/04/11 11:18:34;;;;;;;6.38;1.92;;;;;;;17.42;35.93;101273.84;5040897;28;20049;-53
2023/04/11 11:21:00;;;;;;;7.20;2.00;;;;;;;17.33;35.31;101279.09;5038216;28;20021;-53